createdAt,value
2024-04-19T00:01:14.865Z,87.13
2024-04-19T00:04:02.346Z,87.50
2024-04-19T00:06:51.467Z,89.20
2024-04-19T00:09:38.820Z,90.70
2024-04-19T00:12:26.148Z,91.36
2024-04-19T00:15:13.501Z,91.91
2024-04-19T00:18:00.897Z,93.06
2024-04-19T00:21:08.682Z,92.12
2024-04-19T00:23:55.955Z,91.99
2024-04-19T00:26:43.188Z,92.44
2024-04-19T00:29:30.437Z,93.53
2024-04-19T00:32:17.783Z,93.76
2024-04-19T00:35:05.170Z,94.37
2024-04-19T00:37:52.429Z,94.43
2024-04-19T00:40:51.745Z,95.22
2024-04-19T00:43:39.062Z,95.59
2024-04-19T00:46:27.243Z,95.89
2024-04-19T00:49:15.071Z,95.89
2024-04-19T00:52:04.966Z,95.67
2024-04-19T00:54:52.625Z,95.75
2024-04-19T00:57:40.068Z,96.29
2024-04-19T01:00:27.658Z,96.47
2024-04-19T01:03:15.098Z,96.75
2024-04-19T01:06:02.418Z,96.48
2024-04-19T01:08:49.764Z,96.60
2024-04-19T01:11:50.162Z,97.33
2024-04-19T01:14:37.397Z,98.69
2024-04-19T01:17:24.652Z,98.68
2024-04-19T01:20:12.086Z,98.63
2024-04-19T01:23:01.145Z,100.00
2024-04-19T01:25:49.775Z,100.00
2024-04-19T01:28:36.986Z,100.00
2024-04-19T01:31:24.191Z,100.00
2024-04-19T01:34:11.466Z,100.00
2024-04-19T01:36:58.759Z,100.00
2024-04-19T01:39:46.043Z,100.00
2024-04-19T01:42:33.587Z,100.00
2024-04-19T01:45:23.843Z,100.00
2024-04-19T01:48:11.285Z,100.00
2024-04-19T01:50:58.550Z,100.00
2024-04-19T01:53:45.751Z,100.00
2024-04-19T01:56:32.970Z,100.00
2024-04-19T01:59:20.683Z,100.00
2024-04-19T02:02:08.027Z,100.00
2024-04-19T02:04:55.691Z,100.00
2024-04-19T02:07:42.958Z,100.00
2024-04-19T02:10:30.207Z,100.00
2024-04-19T02:13:17.479Z,100.00
2024-04-19T02:16:05.467Z,100.00
2024-04-19T02:18:52.755Z,100.00
2024-04-19T02:21:40.274Z,100.00
2024-04-19T02:24:27.611Z,100.00
2024-04-19T02:27:33.588Z,100.00
2024-04-19T02:30:39.418Z,100.00
2024-04-19T02:33:28.001Z,100.00
2024-04-19T02:36:15.647Z,100.00
2024-04-19T02:39:02.933Z,100.00
2024-04-19T02:41:50.587Z,100.00
2024-04-19T02:44:38.086Z,100.00
2024-04-19T02:47:26.319Z,100.00
2024-04-19T02:50:13.564Z,100.00
2024-04-19T02:53:01.502Z,100.00
2024-04-19T02:55:51.410Z,100.00
2024-04-19T02:58:40.546Z,100.00
2024-04-19T03:01:28.592Z,100.00
2024-04-19T03:04:16.020Z,100.00
2024-04-19T03:07:03.423Z,100.00
2024-04-19T03:09:50.749Z,100.00
2024-04-19T03:12:38.191Z,100.00
2024-04-19T03:15:25.979Z,100.00
2024-04-19T03:18:13.300Z,100.00
2024-04-19T03:21:02.363Z,100.00
2024-04-19T03:23:49.598Z,100.00
2024-04-19T03:26:37.737Z,100.00
2024-04-19T03:29:25.159Z,100.00
2024-04-19T03:32:12.325Z,100.00
2024-04-19T03:34:59.693Z,100.00
2024-04-19T03:37:46.967Z,100.00
2024-04-19T03:40:34.296Z,100.00
2024-04-19T03:43:22.932Z,100.00
2024-04-19T03:46:10.210Z,100.00
2024-04-19T03:48:58.656Z,100.00
2024-04-19T03:51:46.109Z,100.00
2024-04-19T03:54:33.471Z,100.00
2024-04-19T03:57:20.772Z,100.00
2024-04-19T04:00:08.713Z,100.00
2024-04-19T04:03:03.528Z,100.00
2024-04-19T04:05:52.675Z,100.00
2024-04-19T04:08:39.912Z,100.00
2024-04-19T04:11:27.160Z,100.00
2024-04-19T04:14:14.535Z,100.00
2024-04-19T04:17:01.779Z,100.00
2024-04-19T04:19:49.031Z,100.00
2024-04-19T04:22:36.214Z,100.00
2024-04-19T04:25:23.501Z,100.00
2024-04-19T04:28:10.752Z,100.00
2024-04-19T04:30:58.382Z,100.00
2024-04-19T04:33:45.761Z,100.00
2024-04-19T04:36:33.962Z,100.00
2024-04-19T04:39:21.282Z,100.00
2024-04-19T04:42:08.564Z,100.00
2024-04-19T04:44:55.810Z,100.00
2024-04-19T04:47:43.236Z,100.00
2024-04-19T04:50:30.606Z,100.00
2024-04-19T04:53:18.211Z,100.00
2024-04-19T04:56:05.835Z,100.00
2024-04-19T04:58:55.827Z,100.00
2024-04-19T05:01:44.973Z,100.00
2024-04-19T05:04:34.034Z,100.00
2024-04-19T05:07:24.122Z,100.00
2024-04-19T05:10:11.370Z,100.00
2024-04-19T05:13:01.825Z,100.00
2024-04-19T05:15:51.248Z,100.00
2024-04-19T05:18:38.606Z,100.00
2024-04-19T05:21:25.875Z,100.00
2024-04-19T05:24:13.291Z,100.00
2024-04-19T05:27:00.608Z,100.00
2024-04-19T05:29:47.902Z,100.00
2024-04-19T05:32:35.206Z,100.00
2024-04-19T05:35:22.457Z,100.00
2024-04-19T05:38:09.769Z,100.00
2024-04-19T05:40:57.038Z,100.00
2024-04-19T05:43:47.610Z,100.00
2024-04-19T05:46:35.839Z,100.00
2024-04-19T05:49:23.999Z,100.00
2024-04-19T05:52:11.473Z,100.00
2024-04-19T05:54:59.105Z,100.00
2024-04-19T05:57:46.573Z,100.00
2024-04-19T06:00:33.948Z,100.00
2024-04-19T06:03:21.353Z,100.00
2024-04-19T06:06:08.741Z,100.00
2024-04-19T06:08:56.692Z,100.00
2024-04-19T06:11:43.938Z,100.00
2024-04-19T06:14:31.318Z,100.00
2024-04-19T06:17:18.641Z,100.00
2024-04-19T06:20:06.816Z,100.00
2024-04-19T06:22:54.043Z,100.00
2024-04-19T06:25:41.511Z,100.00
2024-04-19T06:28:28.855Z,100.00
2024-04-19T06:31:17.975Z,100.00
2024-04-19T06:34:06.813Z,100.00
2024-04-19T06:36:54.156Z,100.00
2024-04-19T06:39:50.460Z,100.00
2024-04-19T06:42:47.616Z,100.00
2024-04-19T06:45:38.467Z,100.00
2024-04-19T06:48:26.354Z,100.00
2024-04-19T06:51:13.716Z,100.00
2024-04-19T06:54:01.120Z,100.00
2024-04-19T06:56:48.440Z,100.00
2024-04-19T06:59:35.819Z,100.00
2024-04-19T07:02:23.230Z,100.00
2024-04-19T07:05:10.647Z,100.00
2024-04-19T07:07:58.055Z,100.00
2024-04-19T07:10:45.365Z,100.00
2024-04-19T07:13:35.242Z,100.00
2024-04-19T07:16:22.561Z,100.00
2024-04-19T07:19:09.833Z,100.00
2024-04-19T07:21:57.138Z,100.00
2024-04-19T07:24:44.602Z,100.00
2024-04-19T07:27:39.455Z,100.00
2024-04-19T07:30:32.915Z,100.00
2024-04-19T07:33:20.355Z,100.00
2024-04-19T07:36:08.110Z,100.00
2024-04-19T07:38:55.650Z,100.00
2024-04-19T07:41:44.054Z,100.00
2024-04-19T07:44:31.517Z,100.00
2024-04-19T07:47:18.890Z,100.00
2024-04-19T07:50:06.675Z,100.00
2024-04-19T07:52:53.957Z,100.00
2024-04-19T07:55:41.209Z,100.00
2024-04-19T07:58:28.563Z,100.00
2024-04-19T08:01:15.895Z,100.00
2024-04-19T08:04:04.578Z,100.00
2024-04-19T08:06:52.207Z,100.00
2024-04-19T08:09:39.816Z,100.00
2024-04-19T08:12:27.156Z,100.00
2024-04-19T08:15:14.554Z,100.00
2024-04-19T08:18:01.862Z,100.00
2024-04-19T08:20:49.177Z,100.00
2024-04-19T08:23:36.417Z,100.00
2024-04-19T08:26:23.705Z,100.00
2024-04-19T08:29:18.389Z,100.00
2024-04-19T08:32:14.941Z,100.00
2024-04-19T08:35:02.359Z,100.00
2024-04-19T08:37:49.697Z,100.00
2024-04-19T08:40:41.957Z,100.00
2024-04-19T08:43:35.165Z,100.00
2024-04-19T08:46:23.964Z,100.00
2024-04-19T08:49:17.042Z,100.00
2024-04-19T08:52:21.163Z,100.00
2024-04-19T08:55:13.894Z,100.00
2024-04-19T08:58:01.431Z,99.29
2024-04-19T09:00:49.257Z,96.12
2024-04-19T09:03:36.847Z,95.08
2024-04-19T09:06:29.277Z,95.83
2024-04-19T09:09:17.341Z,97.71
2024-04-19T09:12:07.554Z,98.90
2024-04-19T09:14:56.013Z,99.15
2024-04-19T09:17:43.534Z,99.89
2024-04-19T09:20:30.856Z,100.00
2024-04-19T09:23:18.127Z,99.83
2024-04-19T09:26:05.908Z,99.26
2024-04-19T09:28:54.620Z,96.11
2024-04-19T09:31:44.058Z,96.77
2024-04-19T09:34:31.356Z,96.92
2024-04-19T09:37:18.801Z,98.60
2024-04-19T09:40:06.806Z,96.21
2024-04-19T09:42:57.066Z,96.99
2024-04-19T09:45:45.263Z,98.73
2024-04-19T09:48:41.381Z,97.64
2024-04-19T09:51:48.477Z,98.08
2024-04-19T09:54:41.269Z,97.71
2024-04-19T09:57:31.143Z,96.67
2024-04-19T10:00:22.773Z,97.12
2024-04-19T10:03:15.538Z,95.05
2024-04-19T10:06:07.184Z,93.52
2024-04-19T10:08:59.008Z,94.01
2024-04-19T10:11:49.365Z,90.57
2024-04-19T10:14:36.761Z,92.60
2024-04-19T10:17:24.411Z,90.77
2024-04-19T10:20:14.661Z,92.27
2024-04-19T10:23:02.009Z,93.26
2024-04-19T10:25:50.984Z,92.85
2024-04-19T10:28:38.322Z,91.72
2024-04-19T10:31:25.798Z,93.22
2024-04-19T10:34:13.187Z,93.27
2024-04-19T10:37:00.577Z,90.32
2024-04-19T10:39:48.441Z,85.62
2024-04-19T10:42:36.291Z,83.10
2024-04-19T10:45:25.268Z,84.70
2024-04-19T10:48:13.629Z,84.66
2024-04-19T10:51:03.443Z,80.28
2024-04-19T10:53:51.544Z,83.00
2024-04-19T10:56:38.915Z,82.22
2024-04-19T10:59:26.235Z,80.96
2024-04-19T11:02:14.042Z,81.86
2024-04-19T11:05:03.737Z,81.60
2024-04-19T11:07:51.132Z,79.98
2024-04-19T11:10:38.569Z,80.24
2024-04-19T11:13:27.060Z,79.34
2024-04-19T11:16:14.382Z,79.69
2024-04-19T11:19:01.764Z,75.90
2024-04-19T11:21:50.169Z,77.05
2024-04-19T11:24:37.808Z,75.87
2024-04-19T11:27:25.182Z,77.97
2024-04-19T11:30:12.684Z,76.95
2024-04-19T11:33:01.862Z,71.49
2024-04-19T11:35:50.031Z,69.36
2024-04-19T11:38:37.328Z,71.90
2024-04-19T11:41:24.699Z,68.19
2024-04-19T11:44:12.178Z,70.19
2024-04-19T11:47:06.721Z,73.12
2024-04-19T11:49:54.064Z,70.24
2024-04-19T11:52:41.318Z,69.01
2024-04-19T11:55:28.637Z,66.39
2024-04-19T11:58:16.011Z,68.31
2024-04-19T12:01:03.418Z,63.09
2024-04-19T12:03:51.120Z,62.93
2024-04-19T12:06:39.471Z,63.29
2024-04-19T12:09:27.059Z,65.53
2024-04-19T12:12:54.010Z,68.68
2024-04-19T12:16:04.768Z,67.49
2024-04-19T12:18:30.863Z,67.65
2024-04-19T12:21:18.840Z,69.09
2024-04-19T12:24:07.691Z,70.55
2024-04-19T12:26:56.644Z,70.81
2024-04-19T12:29:46.867Z,73.58
2024-04-19T12:32:34.937Z,73.64
2024-04-19T12:35:22.500Z,68.36
2024-04-19T12:38:09.852Z,65.25
2024-04-19T12:40:57.146Z,64.14
2024-04-19T12:43:44.938Z,60.53
2024-04-19T12:46:32.424Z,61.99
2024-04-19T12:49:22.565Z,57.61
2024-04-19T12:52:09.982Z,60.98
2024-04-19T12:54:57.246Z,54.47
2024-04-19T12:57:44.729Z,48.47
2024-04-19T13:00:32.363Z,49.33
2024-04-19T13:03:19.821Z,47.84
2024-04-19T13:06:08.565Z,47.08
2024-04-19T13:08:55.844Z,49.62
2024-04-19T13:11:43.085Z,49.96
2024-04-19T13:14:30.515Z,51.93
2024-04-19T13:17:17.888Z,53.74
2024-04-19T13:20:07.051Z,53.92
2024-04-19T13:22:54.322Z,53.54
2024-04-19T13:25:41.705Z,54.58
2024-04-19T13:28:28.973Z,55.61
2024-04-19T13:31:16.403Z,56.21
2024-04-19T13:34:04.796Z,57.83
2024-04-19T13:36:52.637Z,59.75
2024-04-19T13:39:40.040Z,61.79
2024-04-19T13:42:28.886Z,63.77
2024-04-19T13:45:16.270Z,65.25
2024-04-19T13:48:04.133Z,64.64
2024-04-19T13:50:51.922Z,66.06
2024-04-19T13:53:42.891Z,65.03
2024-04-19T13:56:32.210Z,60.75
2024-04-19T13:59:22.263Z,53.94
2024-04-19T14:02:09.619Z,52.05
2024-04-19T14:04:57.197Z,52.49
2024-04-19T14:07:45.092Z,49.58
2024-04-19T14:10:32.493Z,50.46
2024-04-19T14:13:19.767Z,52.31
2024-04-19T14:16:07.464Z,46.07
2024-04-19T14:18:55.242Z,42.24
2024-04-19T14:21:42.892Z,40.46
2024-04-19T14:24:30.279Z,41.66
2024-04-19T14:27:17.576Z,43.91
2024-04-19T14:30:06.157Z,46.58
2024-04-19T14:32:53.423Z,46.99
2024-04-19T14:35:43.766Z,46.43
2024-04-19T14:38:31.778Z,47.36
2024-04-19T14:41:19.110Z,46.20
2024-04-19T14:44:06.341Z,44.35
2024-04-19T14:46:53.699Z,41.63
2024-04-19T14:49:41.052Z,40.34
2024-04-19T14:52:28.779Z,38.14
2024-04-19T14:55:16.151Z,39.38
2024-04-19T14:58:03.550Z,40.01
2024-04-19T15:00:51.849Z,40.69
2024-04-19T15:03:39.409Z,42.46
2024-04-19T15:06:31.251Z,44.88
2024-04-19T15:09:18.591Z,45.58
2024-04-19T15:12:06.335Z,45.48
2024-04-19T15:14:53.624Z,45.53
2024-04-19T15:17:43.819Z,46.77
2024-04-19T15:20:33.604Z,45.44
2024-04-19T15:23:20.886Z,45.27
2024-04-19T15:26:09.077Z,43.43
2024-04-19T15:28:56.477Z,42.79
2024-04-19T15:31:44.145Z,42.96
2024-04-19T15:34:41.699Z,43.78
2024-04-19T15:37:34.682Z,44.25
2024-04-19T15:40:22.083Z,45.24
2024-04-19T15:43:09.447Z,45.58
2024-04-19T15:45:56.784Z,45.27
2024-04-19T15:48:44.219Z,44.65
2024-04-19T15:51:33.265Z,44.51
2024-04-19T15:54:20.640Z,41.65
2024-04-19T15:57:07.935Z,41.92
2024-04-19T15:59:55.370Z,42.04
2024-04-19T16:02:42.881Z,43.38
2024-04-19T16:05:31.073Z,45.44
2024-04-19T16:08:19.956Z,46.61
2024-04-19T16:11:07.406Z,47.89
2024-04-19T16:13:54.715Z,49.18
2024-04-19T16:16:43.717Z,50.66
2024-04-19T16:19:31.532Z,51.55
2024-04-19T16:22:20.410Z,52.09
2024-04-19T16:25:08.332Z,54.08
2024-04-19T16:27:55.659Z,56.03
2024-04-19T16:30:43.065Z,56.75
2024-04-19T16:33:32.084Z,59.68
2024-04-19T16:36:19.524Z,62.69
2024-04-19T16:39:07.941Z,66.30
2024-04-19T16:41:55.322Z,67.94
2024-04-19T16:44:48.064Z,70.53
2024-04-19T16:47:35.848Z,71.16
2024-04-19T16:50:23.289Z,73.41
2024-04-19T16:53:10.602Z,73.83
2024-04-19T16:55:57.860Z,75.15
2024-04-19T16:58:45.492Z,75.32
2024-04-19T17:01:32.887Z,74.51
2024-04-19T17:04:23.356Z,76.37
2024-04-19T17:07:10.702Z,76.76
2024-04-19T17:09:58.232Z,77.21
2024-04-19T17:12:45.667Z,78.00
2024-04-19T17:15:33.110Z,79.00
2024-04-19T17:18:20.478Z,78.44
2024-04-19T17:21:08.306Z,78.93
2024-04-19T17:23:57.089Z,78.69
2024-04-19T17:26:44.331Z,76.76
2024-04-19T17:29:31.575Z,76.32
2024-04-19T17:32:18.915Z,74.87
2024-04-19T17:35:09.630Z,75.83
2024-04-19T17:37:57.689Z,75.57
2024-04-19T17:40:48.790Z,75.77
2024-04-19T17:43:36.923Z,75.70
2024-04-19T17:46:24.361Z,75.83
2024-04-19T17:49:11.700Z,75.59
2024-04-19T17:51:58.980Z,75.38
2024-04-19T17:54:48.396Z,75.20
2024-04-19T17:57:35.914Z,75.12
2024-04-19T18:00:23.762Z,75.67
2024-04-19T18:03:11.230Z,75.97
2024-04-19T18:05:58.575Z,76.62
2024-04-19T18:08:47.302Z,77.09
2024-04-19T18:11:34.756Z,77.14
2024-04-19T18:14:22.207Z,76.56
2024-04-19T18:17:09.775Z,76.58
2024-04-19T18:19:59.879Z,76.42
2024-04-19T18:22:47.127Z,77.36
2024-04-19T18:25:34.431Z,77.25
2024-04-19T18:28:21.697Z,77.19
2024-04-19T18:31:09.122Z,77.84
2024-04-19T18:34:03.518Z,78.60
2024-04-19T18:36:51.721Z,79.17
2024-04-19T18:39:38.991Z,80.34
2024-04-19T18:42:26.319Z,80.26
2024-04-19T18:45:13.634Z,80.62
2024-04-19T18:48:01.061Z,81.65
2024-04-19T18:50:48.448Z,82.65
2024-04-19T18:53:36.003Z,82.27
2024-04-19T18:56:23.260Z,82.48
2024-04-19T18:59:10.596Z,82.91
2024-04-19T19:01:57.898Z,82.87
2024-04-19T19:04:45.401Z,83.24
2024-04-19T19:07:32.641Z,84.01
2024-04-19T19:10:19.961Z,84.50
2024-04-19T19:13:08.121Z,84.63
2024-04-19T19:15:57.162Z,84.98
2024-04-19T19:18:44.750Z,85.16
2024-04-19T19:21:32.845Z,85.23
2024-04-19T19:24:20.806Z,84.80
2024-04-19T19:27:08.049Z,85.37
2024-04-19T19:29:55.322Z,85.45
2024-04-19T19:32:42.817Z,85.37
2024-04-19T19:35:30.192Z,84.86
2024-04-19T19:38:17.463Z,84.84
2024-04-19T19:41:05.204Z,84.99
2024-04-19T19:43:52.488Z,85.06
2024-04-19T19:49:27.641Z,85.57
2024-04-19T19:52:14.945Z,85.57
2024-04-19T19:55:02.534Z,86.02
2024-04-19T19:57:54.242Z,85.67
2024-04-19T20:01:00.339Z,85.91
2024-04-19T20:04:06.340Z,85.92
2024-04-19T20:06:54.451Z,86.69
2024-04-19T20:09:41.929Z,85.59
2024-04-19T20:12:31.178Z,85.34
2024-04-19T20:15:22.788Z,85.43
2024-04-19T20:18:18.749Z,85.24
2024-04-19T20:21:06.223Z,85.15
2024-04-19T20:23:53.708Z,84.81
2024-04-19T20:26:41.040Z,85.38
2024-04-19T20:29:30.129Z,84.90
2024-04-19T20:32:18.449Z,85.05
2024-04-19T20:35:06.275Z,84.81
2024-04-19T20:37:53.539Z,83.56
2024-04-19T20:40:41.555Z,83.29
2024-04-19T20:43:29.153Z,83.81
2024-04-19T20:46:17.592Z,83.63
2024-04-19T20:49:04.954Z,84.99
2024-04-19T20:51:52.367Z,84.99
2024-04-19T20:54:39.821Z,85.52
2024-04-19T20:57:27.317Z,84.95
2024-04-19T21:00:14.830Z,85.19
2024-04-19T21:03:02.211Z,85.01
2024-04-19T21:05:49.743Z,85.53
2024-04-19T21:08:37.472Z,85.28
2024-04-19T21:11:24.932Z,85.72
2024-04-19T21:14:12.237Z,85.50
2024-04-19T21:16:59.591Z,84.43
2024-04-19T21:19:46.862Z,85.46
2024-04-19T21:22:34.192Z,85.38
2024-04-19T21:25:21.870Z,85.58
2024-04-19T21:28:09.359Z,85.78
2024-04-19T21:31:08.271Z,85.88
2024-04-19T21:33:55.733Z,85.64
2024-04-19T21:36:46.623Z,85.17
2024-04-19T21:39:34.202Z,85.39
2024-04-19T21:42:21.584Z,84.99
2024-04-19T21:45:09.468Z,83.95
2024-04-19T21:47:56.843Z,83.22
2024-04-19T21:50:44.439Z,82.83
2024-04-19T21:53:32.273Z,82.49
2024-04-19T21:56:19.610Z,82.13
2024-04-19T21:59:10.252Z,81.64
2024-04-19T22:01:57.625Z,82.06
2024-04-19T22:04:48.917Z,83.24
2024-04-19T22:07:36.294Z,84.18
2024-04-19T22:10:23.555Z,85.14
2024-04-19T22:13:14.304Z,85.56
2024-04-19T22:16:08.735Z,86.04
2024-04-19T22:18:56.325Z,87.19
2024-04-19T22:21:43.920Z,88.26
2024-04-19T22:24:31.191Z,88.66
2024-04-19T22:27:20.053Z,88.91
2024-04-19T22:30:08.398Z,89.54
2024-04-19T22:32:55.749Z,90.27
2024-04-19T22:35:43.217Z,90.43
2024-04-19T22:38:30.490Z,91.36
2024-04-19T22:41:17.940Z,91.27
2024-04-19T22:44:05.562Z,91.44
2024-04-19T22:46:53.047Z,91.65
2024-04-19T22:49:40.724Z,91.20
2024-04-19T22:52:27.959Z,90.23
2024-04-19T22:55:15.413Z,90.77
2024-04-19T22:58:05.142Z,90.58
2024-04-19T23:01:00.645Z,90.30
2024-04-19T23:03:48.102Z,91.23
2024-04-19T23:06:35.446Z,91.19
2024-04-19T23:09:23.061Z,91.88
2024-04-19T23:12:10.291Z,92.92
2024-04-19T23:14:57.574Z,93.20
2024-04-19T23:17:44.957Z,93.38
2024-04-19T23:20:32.416Z,93.81
2024-04-19T23:23:19.648Z,93.60
2024-04-19T23:26:13.159Z,94.10
2024-04-19T23:29:04.703Z,93.82
2024-04-19T23:31:52.883Z,94.36
2024-04-19T23:34:40.128Z,94.14
2024-04-19T23:37:27.367Z,93.75
2024-04-19T23:40:17.946Z,94.23
2024-04-19T23:43:05.400Z,94.31
2024-04-19T23:45:52.766Z,93.20
2024-04-19T23:48:40.078Z,93.69
2024-04-19T23:51:27.870Z,94.00
2024-04-19T23:54:19.570Z,94.11
2024-04-19T23:57:06.874Z,94.52
2024-04-19T23:59:54.338Z,94.56
